sensor_id;sensor_type;location;lat;lon;timestamp;P1;durP1;ratioP1;P2;durP2;ratioP2
32427;SDS011;18882;50.952;4.366;2022-09-09T00:00:06;7.90;;;1.45;;
32427;SDS011;18882;50.952;4.366;2022-09-09T00:03:27;2.45;;;1.02;;
32427;SDS011;18882;50.952;4.366;2022-09-09T00:08:20;4.05;;;1.20;;
32427;SDS011;18882;50.952;4.366;2022-09-09T00:10:58;6.28;;;1.00;;
32427;SDS011;18882;50.952;4.366;2022-09-09T00:13:28;6.60;;;1.10;;
32427;SDS011;18882;50.952;4.366;2022-09-09T00:16:04;5.00;;;1.15;;
32427;SDS011;18882;50.952;4.366;2022-09-09T00:21:45;4.68;;;1.20;;
32427;SDS011;18882;50.952;4.366;2022-09-09T00:24:37;1.95;;;1.40;;
32427;SDS011;18882;50.952;4.366;2022-09-09T00:30:12;4.18;;;1.30;;
32427;SDS011;18882;50.952;4.366;2022-09-09T00:32:39;3.17;;;0.63;;
32427;SDS011;18882;50.952;4.366;2022-09-09T00:37:46;3.88;;;0.90;;
32427;SDS011;18882;50.952;4.366;2022-09-09T00:40:23;2.65;;;1.15;;
32427;SDS011;18882;50.952;4.366;2022-09-09T00:43:21;6.88;;;1.20;;
32427;SDS011;18882;50.952;4.366;2022-09-09T00:48:54;3.03;;;0.90;;
32427;SDS011;18882;50.952;4.366;2022-09-09T00:51:23;3.10;;;1.25;;
32427;SDS011;18882;50.952;4.366;2022-09-09T00:54:15;4.18;;;1.00;;
32427;SDS011;18882;50.952;4.366;2022-09-09T00:59:32;5.53;;;0.95;;
32427;SDS011;18882;50.952;4.366;2022-09-09T01:02:09;8.63;;;1.02;;
32427;SDS011;18882;50.952;4.366;2022-09-09T01:04:43;4.68;;;1.10;;
32427;SDS011;18882;50.952;4.366;2022-09-09T01:07:27;4.03;;;1.20;;
32427;SDS011;18882;50.952;4.366;2022-09-09T01:09:59;9.07;;;1.40;;
32427;SDS011;18882;50.952;4.366;2022-09-09T01:15:08;4.35;;;1.33;;
32427;SDS011;18882;50.952;4.366;2022-09-09T01:17:46;6.55;;;1.10;;
32427;SDS011;18882;50.952;4.366;2022-09-09T01:20:23;4.10;;;1.10;;
32427;SDS011;18882;50.952;4.366;2022-09-09T01:23:04;1.65;;;0.95;;
32427;SDS011;18882;50.952;4.366;2022-09-09T01:28:43;2.72;;;0.68;;
32427;SDS011;18882;50.952;4.366;2022-09-09T01:31:11;2.35;;;1.00;;
32427;SDS011;18882;50.952;4.366;2022-09-09T01:33:42;6.60;;;1.30;;
32427;SDS011;18882;50.952;4.366;2022-09-09T01:36:08;3.95;;;0.70;;
32427;SDS011;18882;50.952;4.366;2022-09-09T01:38:37;4.95;;;0.90;;
32427;SDS011;18882;50.952;4.366;2022-09-09T01:41:04;2.45;;;0.77;;
32427;SDS011;18882;50.952;4.366;2022-09-09T01:43:30;4.20;;;0.98;;
32427;SDS011;18882;50.952;4.366;2022-09-09T01:45:56;1.30;;;0.80;;
32427;SDS011;18882;50.952;4.366;2022-09-09T01:48:25;4.13;;;0.82;;
32427;SDS011;18882;50.952;4.366;2022-09-09T01:50:52;5.50;;;0.90;;
32427;SDS011;18882;50.952;4.366;2022-09-09T01:53:18;4.38;;;1.10;;
32427;SDS011;18882;50.952;4.366;2022-09-09T01:55:48;6.50;;;1.15;;
32427;SDS011;18882;50.952;4.366;2022-09-09T02:04:30;11.02;;;1.60;;
32427;SDS011;18882;50.952;4.366;2022-09-09T02:06:52;4.57;;;1.48;;
32427;SDS011;18882;50.952;4.366;2022-09-09T02:09:22;10.43;;;1.30;;
32427;SDS011;18882;50.952;4.366;2022-09-09T02:11:49;5.80;;;1.15;;
32427;SDS011;18882;50.952;4.366;2022-09-09T02:14:24;2.58;;;1.25;;
32427;SDS011;18882;50.952;4.366;2022-09-09T02:17:00;5.82;;;1.20;;
32427;SDS011;18882;50.952;4.366;2022-09-09T02:19:49;4.22;;;0.85;;
32427;SDS011;18882;50.952;4.366;2022-09-09T02:22:25;6.57;;;0.93;;
32427;SDS011;18882;50.952;4.366;2022-09-09T02:24:52;5.50;;;0.80;;
32427;SDS011;18882;50.952;4.366;2022-09-09T02:27:23;6.85;;;1.10;;
32427;SDS011;18882;50.952;4.366;2022-09-09T02:29:49;5.82;;;1.30;;
32427;SDS011;18882;50.952;4.366;2022-09-09T02:32:17;3.72;;;1.23;;
32427;SDS011;18882;50.952;4.366;2022-09-09T02:34:50;5.45;;;1.60;;
32427;SDS011;18882;50.952;4.366;2022-09-09T02:37:25;7.00;;;1.25;;
32427;SDS011;18882;50.952;4.366;2022-09-09T02:39:55;6.53;;;1.20;;
32427;SDS011;18882;50.952;4.366;2022-09-09T02:42:20;2.38;;;0.98;;
32427;SDS011;18882;50.952;4.366;2022-09-09T02:44:47;6.45;;;1.40;;
32427;SDS011;18882;50.952;4.366;2022-09-09T02:50:22;4.50;;;1.08;;
32427;SDS011;18882;50.952;4.366;2022-09-09T02:55:37;9.75;;;1.20;;
32427;SDS011;18882;50.952;4.366;2022-09-09T02:58:12;6.95;;;1.63;;
32427;SDS011;18882;50.952;4.366;2022-09-09T03:00:42;4.78;;;1.20;;
32427;SDS011;18882;50.952;4.366;2022-09-09T03:03:09;7.57;;;1.10;;
32427;SDS011;18882;50.952;4.366;2022-09-09T03:05:35;4.72;;;1.42;;
32427;SDS011;18882;50.952;4.366;2022-09-09T03:08:01;6.65;;;1.88;;
32427;SDS011;18882;50.952;4.366;2022-09-09T03:10:28;3.75;;;1.17;;
32427;SDS011;18882;50.952;4.366;2022-09-09T03:12:54;7.82;;;1.42;;
32427;SDS011;18882;50.952;4.366;2022-09-09T03:15:20;6.25;;;1.48;;
32427;SDS011;18882;50.952;4.366;2022-09-09T03:17:46;8.30;;;1.80;;
32427;SDS011;18882;50.952;4.366;2022-09-09T03:20:12;7.75;;;1.50;;
32427;SDS011;18882;50.952;4.366;2022-09-09T03:22:38;13.15;;;1.90;;
32427;SDS011;18882;50.952;4.366;2022-09-09T03:25:03;8.32;;;1.25;;
32427;SDS011;18882;50.952;4.366;2022-09-09T03:27:30;4.80;;;1.33;;
32427;SDS011;18882;50.952;4.366;2022-09-09T03:29:57;8.05;;;1.13;;
32427;SDS011;18882;50.952;4.366;2022-09-09T03:32:22;7.30;;;2.08;;
32427;SDS011;18882;50.952;4.366;2022-09-09T03:34:51;3.78;;;1.67;;
32427;SDS011;18882;50.952;4.366;2022-09-09T03:37:17;6.25;;;1.48;;
32427;SDS011;18882;50.952;4.366;2022-09-09T03:39:43;5.93;;;1.30;;
32427;SDS011;18882;50.952;4.366;2022-09-09T03:42:11;8.70;;;1.92;;
32427;SDS011;18882;50.952;4.366;2022-09-09T03:44:39;5.22;;;1.27;;
32427;SDS011;18882;50.952;4.366;2022-09-09T03:47:06;8.57;;;1.85;;
32427;SDS011;18882;50.952;4.366;2022-09-09T03:49:31;8.15;;;1.17;;
32427;SDS011;18882;50.952;4.366;2022-09-09T03:51:57;8.27;;;1.60;;
32427;SDS011;18882;50.952;4.366;2022-09-09T03:54:24;8.65;;;1.70;;
32427;SDS011;18882;50.952;4.366;2022-09-09T03:56:50;7.40;;;1.50;;
32427;SDS011;18882;50.952;4.366;2022-09-09T03:59:16;3.72;;;0.93;;
32427;SDS011;18882;50.952;4.366;2022-09-09T04:01:42;4.43;;;1.33;;
32427;SDS011;18882;50.952;4.366;2022-09-09T04:04:08;7.70;;;1.27;;
32427;SDS011;18882;50.952;4.366;2022-09-09T04:06:34;10.43;;;1.90;;
32427;SDS011;18882;50.952;4.366;2022-09-09T04:09:00;12.65;;;1.52;;
32427;SDS011;18882;50.952;4.366;2022-09-09T04:11:27;8.98;;;1.95;;
32427;SDS011;18882;50.952;4.366;2022-09-09T04:13:53;10.25;;;1.83;;
32427;SDS011;18882;50.952;4.366;2022-09-09T04:16:18;9.38;;;1.50;;
32427;SDS011;18882;50.952;4.366;2022-09-09T04:18:45;8.18;;;1.80;;
32427;SDS011;18882;50.952;4.366;2022-09-09T04:21:11;8.45;;;2.03;;
32427;SDS011;18882;50.952;4.366;2022-09-09T04:23:37;8.38;;;2.10;;
32427;SDS011;18882;50.952;4.366;2022-09-09T04:26:04;11.13;;;1.45;;
32427;SDS011;18882;50.952;4.366;2022-09-09T04:28:31;7.95;;;1.60;;
32427;SDS011;18882;50.952;4.366;2022-09-09T04:31:21;13.50;;;1.40;;
32427;SDS011;18882;50.952;4.366;2022-09-09T04:33:47;6.65;;;1.33;;
32427;SDS011;18882;50.952;4.366;2022-09-09T04:36:14;3.47;;;1.25;;
32427;SDS011;18882;50.952;4.366;2022-09-09T04:38:40;9.00;;;1.50;;
32427;SDS011;18882;50.952;4.366;2022-09-09T04:41:06;9.20;;;1.88;;
32427;SDS011;18882;50.952;4.366;2022-09-09T04:43:32;5.85;;;2.33;;
32427;SDS011;18882;50.952;4.366;2022-09-09T04:45:58;7.30;;;1.85;;
32427;SDS011;18882;50.952;4.366;2022-09-09T04:48:24;8.88;;;1.45;;
32427;SDS011;18882;50.952;4.366;2022-09-09T04:51:00;5.38;;;1.73;;
32427;SDS011;18882;50.952;4.366;2022-09-09T04:53:28;10.55;;;1.75;;
32427;SDS011;18882;50.952;4.366;2022-09-09T04:56:01;10.43;;;2.03;;
32427;SDS011;18882;50.952;4.366;2022-09-09T04:58:27;4.40;;;1.85;;
32427;SDS011;18882;50.952;4.366;2022-09-09T05:00:53;9.40;;;1.52;;
32427;SDS011;18882;50.952;4.366;2022-09-09T05:03:18;11.90;;;2.35;;
32427;SDS011;18882;50.952;4.366;2022-09-09T05:05:44;9.65;;;1.77;;
32427;SDS011;18882;50.952;4.366;2022-09-09T05:08:10;8.52;;;2.28;;
32427;SDS011;18882;50.952;4.366;2022-09-09T05:10:36;5.88;;;2.08;;
32427;SDS011;18882;50.952;4.366;2022-09-09T05:13:03;9.70;;;2.08;;
32427;SDS011;18882;50.952;4.366;2022-09-09T05:15:29;6.40;;;2.55;;
32427;SDS011;18882;50.952;4.366;2022-09-09T05:17:59;6.45;;;1.83;;
32427;SDS011;18882;50.952;4.366;2022-09-09T05:20:25;11.38;;;2.05;;
32427;SDS011;18882;50.952;4.366;2022-09-09T05:22:52;8.13;;;1.63;;
32427;SDS011;18882;50.952;4.366;2022-09-09T05:25:19;7.80;;;1.90;;
32427;SDS011;18882;50.952;4.366;2022-09-09T05:27:45;11.95;;;1.58;;
32427;SDS011;18882;50.952;4.366;2022-09-09T05:30:10;9.38;;;1.65;;
32427;SDS011;18882;50.952;4.366;2022-09-09T05:32:36;8.68;;;1.85;;
32427;SDS011;18882;50.952;4.366;2022-09-09T05:35:02;9.93;;;1.60;;
32427;SDS011;18882;50.952;4.366;2022-09-09T05:37:30;11.93;;;1.95;;
32427;SDS011;18882;50.952;4.366;2022-09-09T05:39:56;3.92;;;1.58;;
32427;SDS011;18882;50.952;4.366;2022-09-09T05:42:22;6.65;;;2.03;;
32427;SDS011;18882;50.952;4.366;2022-09-09T05:44:48;10.27;;;2.25;;
32427;SDS011;18882;50.952;4.366;2022-09-09T05:47:15;2.85;;;1.85;;
32427;SDS011;18882;50.952;4.366;2022-09-09T05:49:42;5.95;;;2.00;;
32427;SDS011;18882;50.952;4.366;2022-09-09T05:52:08;8.77;;;2.30;;
32427;SDS011;18882;50.952;4.366;2022-09-09T05:54:34;15.88;;;2.40;;
32427;SDS011;18882;50.952;4.366;2022-09-09T05:57:01;7.32;;;1.85;;
32427;SDS011;18882;50.952;4.366;2022-09-09T05:59:27;9.30;;;1.67;;
32427;SDS011;18882;50.952;4.366;2022-09-09T06:01:53;15.93;;;2.47;;
32427;SDS011;18882;50.952;4.366;2022-09-09T06:04:19;7.82;;;1.85;;
32427;SDS011;18882;50.952;4.366;2022-09-09T06:06:49;11.90;;;2.45;;
32427;SDS011;18882;50.952;4.366;2022-09-09T06:09:15;11.15;;;1.80;;
32427;SDS011;18882;50.952;4.366;2022-09-09T06:11:40;12.48;;;1.95;;
32427;SDS011;18882;50.952;4.366;2022-09-09T06:14:06;13.45;;;2.00;;
32427;SDS011;18882;50.952;4.366;2022-09-09T06:16:33;3.75;;;1.60;;
32427;SDS011;18882;50.952;4.366;2022-09-09T06:18:59;10.45;;;1.85;;
32427;SDS011;18882;50.952;4.366;2022-09-09T06:21:26;5.38;;;1.60;;
32427;SDS011;18882;50.952;4.366;2022-09-09T06:23:57;8.60;;;1.90;;
32427;SDS011;18882;50.952;4.366;2022-09-09T06:26:24;5.60;;;1.67;;
32427;SDS011;18882;50.952;4.366;2022-09-09T06:28:55;9.00;;;1.80;;
32427;SDS011;18882;50.952;4.366;2022-09-09T06:31:23;8.52;;;1.67;;
32427;SDS011;18882;50.952;4.366;2022-09-09T06:33:51;9.88;;;1.92;;
32427;SDS011;18882;50.952;4.366;2022-09-09T06:36:41;8.07;;;1.42;;
32427;SDS011;18882;50.952;4.366;2022-09-09T06:39:06;10.88;;;2.03;;
32427;SDS011;18882;50.952;4.366;2022-09-09T06:41:33;8.80;;;1.40;;
32427;SDS011;18882;50.952;4.366;2022-09-09T06:43:59;11.48;;;1.45;;
32427;SDS011;18882;50.952;4.366;2022-09-09T06:46:26;10.10;;;1.58;;
32427;SDS011;18882;50.952;4.366;2022-09-09T06:48:55;7.32;;;1.42;;
32427;SDS011;18882;50.952;4.366;2022-09-09T06:51:22;7.32;;;1.42;;
32427;SDS011;18882;50.952;4.366;2022-09-09T06:53:50;6.35;;;1.60;;
32427;SDS011;18882;50.952;4.366;2022-09-09T06:56:18;6.13;;;1.42;;
32427;SDS011;18882;50.952;4.366;2022-09-09T06:59:06;5.72;;;1.70;;
32427;SDS011;18882;50.952;4.366;2022-09-09T07:01:41;5.57;;;1.05;;
32427;SDS011;18882;50.952;4.366;2022-09-09T07:06:36;5.28;;;1.48;;
32427;SDS011;18882;50.952;4.366;2022-09-09T07:09:07;9.68;;;1.83;;
32427;SDS011;18882;50.952;4.366;2022-09-09T07:11:39;7.63;;;1.40;;
32427;SDS011;18882;50.952;4.366;2022-09-09T07:14:06;9.88;;;1.60;;
32427;SDS011;18882;50.952;4.366;2022-09-09T07:16:33;7.85;;;1.30;;
32427;SDS011;18882;50.952;4.366;2022-09-09T07:19:02;10.15;;;1.48;;
32427;SDS011;18882;50.952;4.366;2022-09-09T07:21:29;6.82;;;1.10;;
32427;SDS011;18882;50.952;4.366;2022-09-09T07:23:57;10.55;;;1.27;;
32427;SDS011;18882;50.952;4.366;2022-09-09T07:26:24;3.85;;;1.10;;
32427;SDS011;18882;50.952;4.366;2022-09-09T07:28:51;5.32;;;1.00;;
32427;SDS011;18882;50.952;4.366;2022-09-09T07:31:22;3.47;;;1.17;;
32427;SDS011;18882;50.952;4.366;2022-09-09T07:33:51;4.78;;;1.20;;
32427;SDS011;18882;50.952;4.366;2022-09-09T07:36:18;11.73;;;1.60;;
32427;SDS011;18882;50.952;4.366;2022-09-09T07:38:51;5.65;;;1.58;;
32427;SDS011;18882;50.952;4.366;2022-09-09T07:41:24;4.00;;;1.48;;
32427;SDS011;18882;50.952;4.366;2022-09-09T07:44:11;9.00;;;1.52;;
32427;SDS011;18882;50.952;4.366;2022-09-09T07:46:39;7.35;;;1.25;;
32427;SDS011;18882;50.952;4.366;2022-09-09T07:49:06;11.13;;;1.38;;
32427;SDS011;18882;50.952;4.366;2022-09-09T07:51:33;6.45;;;1.40;;
32427;SDS011;18882;50.952;4.366;2022-09-09T07:54:01;5.43;;;1.30;;
32427;SDS011;18882;50.952;4.366;2022-09-09T07:56:30;3.95;;;1.08;;
32427;SDS011;18882;50.952;4.366;2022-09-09T07:58:56;8.95;;;1.70;;
32427;SDS011;18882;50.952;4.366;2022-09-09T08:01:27;3.70;;;1.23;;
32427;SDS011;18882;50.952;4.366;2022-09-09T08:03:57;13.70;;;1.83;;
32427;SDS011;18882;50.952;4.366;2022-09-09T08:06:40;6.78;;;1.67;;
32427;SDS011;18882;50.952;4.366;2022-09-09T08:09:09;11.30;;;2.03;;
32427;SDS011;18882;50.952;4.366;2022-09-09T08:11:35;9.27;;;1.98;;
32427;SDS011;18882;50.952;4.366;2022-09-09T08:14:01;7.05;;;1.58;;
32427;SDS011;18882;50.952;4.366;2022-09-09T08:16:29;7.90;;;1.58;;
32427;SDS011;18882;50.952;4.366;2022-09-09T08:18:56;7.63;;;1.42;;
32427;SDS011;18882;50.952;4.366;2022-09-09T08:21:32;4.40;;;1.02;;
32427;SDS011;18882;50.952;4.366;2022-09-09T08:23:59;6.75;;;1.30;;
32427;SDS011;18882;50.952;4.366;2022-09-09T08:26:26;3.55;;;1.15;;
32427;SDS011;18882;50.952;4.366;2022-09-09T08:28:54;8.20;;;1.20;;
32427;SDS011;18882;50.952;4.366;2022-09-09T08:31:31;8.18;;;1.50;;
32427;SDS011;18882;50.952;4.366;2022-09-09T08:34:02;5.47;;;1.52;;
32427;SDS011;18882;50.952;4.366;2022-09-09T08:36:29;8.32;;;1.20;;
32427;SDS011;18882;50.952;4.366;2022-09-09T08:39:00;13.13;;;1.35;;
32427;SDS011;18882;50.952;4.366;2022-09-09T08:44:02;3.20;;;1.00;;
32427;SDS011;18882;50.952;4.366;2022-09-09T08:51:40;5.65;;;1.25;;
32427;SDS011;18882;50.952;4.366;2022-09-09T08:54:07;4.88;;;1.40;;
32427;SDS011;18882;50.952;4.366;2022-09-09T08:56:35;6.18;;;1.52;;
32427;SDS011;18882;50.952;4.366;2022-09-09T08:59:01;5.28;;;1.42;;
32427;SDS011;18882;50.952;4.366;2022-09-09T09:01:40;2.90;;;1.38;;
32427;SDS011;18882;50.952;4.366;2022-09-09T09:09:29;9.15;;;1.60;;
32427;SDS011;18882;50.952;4.366;2022-09-09T09:12:07;8.57;;;1.75;;
32427;SDS011;18882;50.952;4.366;2022-09-09T09:14:48;5.88;;;1.52;;
32427;SDS011;18882;50.952;4.366;2022-09-09T09:17:20;8.68;;;1.60;;
32427;SDS011;18882;50.952;4.366;2022-09-09T09:22:21;11.18;;;1.35;;
32427;SDS011;18882;50.952;4.366;2022-09-09T09:27:32;9.63;;;1.92;;
32427;SDS011;18882;50.952;4.366;2022-09-09T09:30:10;3.67;;;1.73;;
32427;SDS011;18882;50.952;4.366;2022-09-09T09:32:40;6.75;;;1.65;;
32427;SDS011;18882;50.952;4.366;2022-09-09T09:35:11;5.90;;;1.40;;
32427;SDS011;18882;50.952;4.366;2022-09-09T09:37:39;4.65;;;1.33;;
32427;SDS011;18882;50.952;4.366;2022-09-09T09:40:10;6.88;;;1.10;;
32427;SDS011;18882;50.952;4.366;2022-09-09T09:43:16;4.22;;;1.08;;
32427;SDS011;18882;50.952;4.366;2022-09-09T09:45:43;6.35;;;1.17;;
32427;SDS011;18882;50.952;4.366;2022-09-09T09:48:10;6.05;;;1.85;;
32427;SDS011;18882;50.952;4.366;2022-09-09T09:53:28;6.47;;;1.52;;
32427;SDS011;18882;50.952;4.366;2022-09-09T09:55:58;4.13;;;1.38;;
32427;SDS011;18882;50.952;4.366;2022-09-09T09:58:32;6.50;;;1.60;;
32427;SDS011;18882;50.952;4.366;2022-09-09T10:01:02;6.20;;;1.30;;
32427;SDS011;18882;50.952;4.366;2022-09-09T10:03:29;6.10;;;1.33;;
32427;SDS011;18882;50.952;4.366;2022-09-09T10:06:03;5.60;;;1.30;;
32427;SDS011;18882;50.952;4.366;2022-09-09T10:08:29;8.43;;;1.33;;
32427;SDS011;18882;50.952;4.366;2022-09-09T10:11:33;9.05;;;1.38;;
32427;SDS011;18882;50.952;4.366;2022-09-09T10:14:00;3.80;;;1.48;;
32427;SDS011;18882;50.952;4.366;2022-09-09T10:19:21;5.38;;;1.20;;
32427;SDS011;18882;50.952;4.366;2022-09-09T10:46:06;3.75;;;0.63;;
32427;SDS011;18882;50.952;4.366;2022-09-09T10:54:42;4.32;;;1.20;;
32427;SDS011;18882;50.952;4.366;2022-09-09T10:57:31;2.17;;;1.23;;
32427;SDS011;18882;50.952;4.366;2022-09-09T11:00:22;3.97;;;1.45;;
32427;SDS011;18882;50.952;4.366;2022-09-09T11:02:52;3.50;;;1.30;;
32427;SDS011;18882;50.952;4.366;2022-09-09T11:08:15;5.90;;;0.98;;
32427;SDS011;18882;50.952;4.366;2022-09-09T11:10:45;3.90;;;0.93;;
32427;SDS011;18882;50.952;4.366;2022-09-09T11:13:26;2.30;;;0.98;;
32427;SDS011;18882;50.952;4.366;2022-09-09T11:19:02;2.42;;;0.85;;
32427;SDS011;18882;50.952;4.366;2022-09-09T11:21:45;3.13;;;0.98;;
32427;SDS011;18882;50.952;4.366;2022-09-09T11:24:29;6.72;;;1.10;;
32427;SDS011;18882;50.952;4.366;2022-09-09T11:27:08;2.28;;;0.90;;
32427;SDS011;18882;50.952;4.366;2022-09-09T11:38:46;4.03;;;0.70;;
32427;SDS011;18882;50.952;4.366;2022-09-09T11:41:43;4.70;;;0.73;;
32427;SDS011;18882;50.952;4.366;2022-09-09T11:44:39;2.25;;;0.80;;
32427;SDS011;18882;50.952;4.366;2022-09-09T11:47:22;5.88;;;0.85;;
32427;SDS011;18882;50.952;4.366;2022-09-09T11:52:41;8.32;;;1.10;;
32427;SDS011;18882;50.952;4.366;2022-09-09T11:55:29;6.80;;;0.90;;
32427;SDS011;18882;50.952;4.366;2022-09-09T11:58:26;2.97;;;0.63;;
32427;SDS011;18882;50.952;4.366;2022-09-09T12:01:37;2.30;;;0.93;;
32427;SDS011;18882;50.952;4.366;2022-09-09T12:04:32;5.22;;;1.00;;
32427;SDS011;18882;50.952;4.366;2022-09-09T12:07:24;3.00;;;0.80;;
32427;SDS011;18882;50.952;4.366;2022-09-09T12:12:52;6.00;;;1.10;;
32427;SDS011;18882;50.952;4.366;2022-09-09T12:15:59;4.07;;;1.20;;
32427;SDS011;18882;50.952;4.366;2022-09-09T12:19:19;3.10;;;0.93;;
32427;SDS011;18882;50.952;4.366;2022-09-09T12:22:16;4.03;;;0.75;;
32427;SDS011;18882;50.952;4.366;2022-09-09T12:28:09;1.88;;;0.80;;
32427;SDS011;18882;50.952;4.366;2022-09-09T12:33:39;8.48;;;1.50;;
32427;SDS011;18882;50.952;4.366;2022-09-09T12:36:30;7.72;;;1.00;;
32427;SDS011;18882;50.952;4.366;2022-09-09T12:42:25;4.80;;;0.90;;
32427;SDS011;18882;50.952;4.366;2022-09-09T12:44:59;6.13;;;1.15;;
32427;SDS011;18882;50.952;4.366;2022-09-09T12:47:33;2.90;;;0.75;;
32427;SDS011;18882;50.952;4.366;2022-09-09T12:50:30;3.70;;;0.73;;
32427;SDS011;18882;50.952;4.366;2022-09-09T12:53:08;3.90;;;0.65;;
32427;SDS011;18882;50.952;4.366;2022-09-09T12:55:53;2.35;;;0.98;;
32427;SDS011;18882;50.952;4.366;2022-09-09T12:58:56;3.92;;;0.63;;
32427;SDS011;18882;50.952;4.366;2022-09-09T13:02:18;3.55;;;0.90;;
32427;SDS011;18882;50.952;4.366;2022-09-09T13:05:13;2.90;;;0.45;;
32427;SDS011;18882;50.952;4.366;2022-09-09T13:07:49;3.95;;;1.05;;
32427;SDS011;18882;50.952;4.366;2022-09-09T13:10:21;1.75;;;0.70;;
32427;SDS011;18882;50.952;4.366;2022-09-09T13:13:50;2.67;;;0.90;;
32427;SDS011;18882;50.952;4.366;2022-09-09T13:16:21;4.85;;;0.88;;
32427;SDS011;18882;50.952;4.366;2022-09-09T13:19:09;4.18;;;0.98;;
32427;SDS011;18882;50.952;4.366;2022-09-09T13:22:34;3.72;;;0.93;;
32427;SDS011;18882;50.952;4.366;2022-09-09T13:25:24;4.28;;;1.02;;
32427;SDS011;18882;50.952;4.366;2022-09-09T13:28:20;4.97;;;0.80;;
32427;SDS011;18882;50.952;4.366;2022-09-09T13:31:02;4.15;;;1.25;;
32427;SDS011;18882;50.952;4.366;2022-09-09T13:34:13;2.35;;;0.60;;
32427;SDS011;18882;50.952;4.366;2022-09-09T13:37:23;3.28;;;0.60;;
32427;SDS011;18882;50.952;4.366;2022-09-09T13:40:22;1.73;;;0.70;;
32427;SDS011;18882;50.952;4.366;2022-09-09T13:42:57;3.15;;;0.73;;
32427;SDS011;18882;50.952;4.366;2022-09-09T13:45:57;5.50;;;0.95;;
32427;SDS011;18882;50.952;4.366;2022-09-09T13:48:59;5.78;;;1.02;;
32427;SDS011;18882;50.952;4.366;2022-09-09T13:54:39;1.98;;;0.77;;
32427;SDS011;18882;50.952;4.366;2022-09-09T13:57:30;3.58;;;0.85;;
32427;SDS011;18882;50.952;4.366;2022-09-09T13:59:56;6.40;;;0.90;;
32427;SDS011;18882;50.952;4.366;2022-09-09T14:05:50;4.75;;;0.65;;
32427;SDS011;18882;50.952;4.366;2022-09-09T14:08:41;2.60;;;0.88;;
32427;SDS011;18882;50.952;4.366;2022-09-09T14:11:22;2.05;;;0.70;;
32427;SDS011;18882;50.952;4.366;2022-09-09T14:13:55;4.20;;;1.33;;
32427;SDS011;18882;50.952;4.366;2022-09-09T14:16:28;2.75;;;0.60;;
32427;SDS011;18882;50.952;4.366;2022-09-09T14:19:18;1.75;;;0.52;;
32427;SDS011;18882;50.952;4.366;2022-09-09T14:21:45;6.32;;;1.10;;
32427;SDS011;18882;50.952;4.366;2022-09-09T14:24:15;1.67;;;0.60;;
32427;SDS011;18882;50.952;4.366;2022-09-09T14:26:42;3.28;;;1.10;;
32427;SDS011;18882;50.952;4.366;2022-09-09T14:29:37;1.50;;;0.70;;
32427;SDS011;18882;50.952;4.366;2022-09-09T14:32:13;4.45;;;0.70;;
32427;SDS011;18882;50.952;4.366;2022-09-09T14:35:14;1.70;;;0.63;;
32427;SDS011;18882;50.952;4.366;2022-09-09T14:37:40;2.67;;;0.68;;
32427;SDS011;18882;50.952;4.366;2022-09-09T14:40:10;2.10;;;0.70;;
32427;SDS011;18882;50.952;4.366;2022-09-09T14:43:00;3.08;;;0.80;;
32427;SDS011;18882;50.952;4.366;2022-09-09T14:46:11;2.15;;;1.17;;
32427;SDS011;18882;50.952;4.366;2022-09-09T14:49:07;1.88;;;1.17;;
32427;SDS011;18882;50.952;4.366;2022-09-09T14:52:04;3.92;;;1.10;;
32427;SDS011;18882;50.952;4.366;2022-09-09T14:54:33;3.88;;;1.05;;
32427;SDS011;18882;50.952;4.366;2022-09-09T14:57:07;5.20;;;1.02;;
32427;SDS011;18882;50.952;4.366;2022-09-09T14:59:33;4.38;;;0.88;;
32427;SDS011;18882;50.952;4.366;2022-09-09T15:02:00;2.58;;;0.77;;
32427;SDS011;18882;50.952;4.366;2022-09-09T15:04:48;2.60;;;0.63;;
32427;SDS011;18882;50.952;4.366;2022-09-09T15:07:36;2.92;;;1.10;;
32427;SDS011;18882;50.952;4.366;2022-09-09T15:10:10;4.05;;;1.17;;
32427;SDS011;18882;50.952;4.366;2022-09-09T15:12:39;2.20;;;0.68;;
32427;SDS011;18882;50.952;4.366;2022-09-09T15:15:49;3.60;;;0.80;;
32427;SDS011;18882;50.952;4.366;2022-09-09T15:19:01;4.38;;;0.73;;
32427;SDS011;18882;50.952;4.366;2022-09-09T15:21:47;4.13;;;0.90;;
32427;SDS011;18882;50.952;4.366;2022-09-09T15:24:12;1.58;;;0.60;;
32427;SDS011;18882;50.952;4.366;2022-09-09T15:26:59;3.45;;;0.60;;
32427;SDS011;18882;50.952;4.366;2022-09-09T15:29:28;2.53;;;0.73;;
32427;SDS011;18882;50.952;4.366;2022-09-09T15:31:55;1.30;;;0.77;;
32427;SDS011;18882;50.952;4.366;2022-09-09T15:34:21;3.05;;;1.58;;
32427;SDS011;18882;50.952;4.366;2022-09-09T15:36:51;4.00;;;0.95;;
32427;SDS011;18882;50.952;4.366;2022-09-09T15:39:17;6.40;;;0.90;;
32427;SDS011;18882;50.952;4.366;2022-09-09T15:41:47;5.05;;;0.98;;
32427;SDS011;18882;50.952;4.366;2022-09-09T15:44:18;2.15;;;0.60;;
32427;SDS011;18882;50.952;4.366;2022-09-09T15:46:51;3.40;;;0.98;;
32427;SDS011;18882;50.952;4.366;2022-09-09T15:49:25;4.93;;;1.33;;
32427;SDS011;18882;50.952;4.366;2022-09-09T15:52:01;3.53;;;1.20;;
32427;SDS011;18882;50.952;4.366;2022-09-09T15:54:31;3.70;;;0.80;;
32427;SDS011;18882;50.952;4.366;2022-09-09T15:57:13;3.75;;;0.98;;
32427;SDS011;18882;50.952;4.366;2022-09-09T16:00:19;2.15;;;0.70;;
32427;SDS011;18882;50.952;4.366;2022-09-09T16:02:52;2.58;;;0.80;;
32427;SDS011;18882;50.952;4.366;2022-09-09T16:05:37;2.95;;;0.95;;
32427;SDS011;18882;50.952;4.366;2022-09-09T16:08:39;4.80;;;1.00;;
32427;SDS011;18882;50.952;4.366;2022-09-09T16:11:19;5.28;;;0.70;;
32427;SDS011;18882;50.952;4.366;2022-09-09T16:13:53;4.05;;;0.90;;
32427;SDS011;18882;50.952;4.366;2022-09-09T16:16:21;4.07;;;1.00;;
32427;SDS011;18882;50.952;4.366;2022-09-09T16:18:52;5.30;;;0.70;;
32427;SDS011;18882;50.952;4.366;2022-09-09T16:21:30;1.25;;;0.88;;
32427;SDS011;18882;50.952;4.366;2022-09-09T16:26:29;2.10;;;0.55;;
32427;SDS011;18882;50.952;4.366;2022-09-09T16:29:22;2.45;;;0.40;;
32427;SDS011;18882;50.952;4.366;2022-09-09T16:31:52;2.10;;;0.80;;
32427;SDS011;18882;50.952;4.366;2022-09-09T16:34:19;0.63;;;0.57;;
32427;SDS011;18882;50.952;4.366;2022-09-09T16:36:53;4.05;;;0.73;;
32427;SDS011;18882;50.952;4.366;2022-09-09T16:43:10;1.77;;;0.60;;
32427;SDS011;18882;50.952;4.366;2022-09-09T18:14:35;5.38;;;0.60;;
32427;SDS011;18882;50.952;4.366;2022-09-09T18:17:16;8.13;;;0.60;;
32427;SDS011;18882;50.952;4.366;2022-09-09T18:19:47;7.43;;;1.13;;
32427;SDS011;18882;50.952;4.366;2022-09-09T18:22:43;4.28;;;0.55;;
32427;SDS011;18882;50.952;4.366;2022-09-09T18:25:14;4.40;;;0.80;;
32427;SDS011;18882;50.952;4.366;2022-09-09T18:28:25;2.33;;;0.57;;
32427;SDS011;18882;50.952;4.366;2022-09-09T18:31:18;4.93;;;0.68;;
32427;SDS011;18882;50.952;4.366;2022-09-09T18:33:55;3.97;;;0.75;;
32427;SDS011;18882;50.952;4.366;2022-09-09T18:39:13;6.07;;;0.68;;
32427;SDS011;18882;50.952;4.366;2022-09-09T18:41:59;7.32;;;1.20;;
32427;SDS011;18882;50.952;4.366;2022-09-09T18:44:49;4.65;;;0.82;;
32427;SDS011;18882;50.952;4.366;2022-09-09T18:47:17;2.55;;;0.52;;
32427;SDS011;18882;50.952;4.366;2022-09-09T18:49:43;2.50;;;0.68;;
32427;SDS011;18882;50.952;4.366;2022-09-09T18:52:13;10.18;;;0.80;;
32427;SDS011;18882;50.952;4.366;2022-09-09T18:54:39;3.15;;;0.60;;
32427;SDS011;18882;50.952;4.366;2022-09-09T18:57:14;9.30;;;0.85;;
32427;SDS011;18882;50.952;4.366;2022-09-09T18:59:53;5.78;;;1.73;;
32427;SDS011;18882;50.952;4.366;2022-09-09T19:02:27;4.97;;;1.05;;
32427;SDS011;18882;50.952;4.366;2022-09-09T19:05:53;3.05;;;0.90;;
32427;SDS011;18882;50.952;4.366;2022-09-09T19:09:01;3.10;;;1.08;;
32427;SDS011;18882;50.952;4.366;2022-09-09T19:11:48;6.00;;;1.13;;
32427;SDS011;18882;50.952;4.366;2022-09-09T19:14:16;8.35;;;0.90;;
32427;SDS011;18882;50.952;4.366;2022-09-09T19:16:45;6.45;;;1.33;;